sensor_id;sensor_type;location;lat;lon;timestamp;pressure;altitude;pressure_sealevel;temperature;humidity
51617;BME280;37697;52.588;13.394;2022-09-20T00:03:03;101101.97;;;8.10;84.04
51617;BME280;37697;52.588;13.394;2022-09-20T00:08:06;101110.48;;;8.06;83.94
51617;BME280;37697;52.588;13.394;2022-09-20T00:13:11;101114.33;;;8.02;83.90
51617;BME280;37697;52.588;13.394;2022-09-20T00:18:12;101114.34;;;7.92;83.75
51617;BME280;37697;52.588;13.394;2022-09-20T00:23:14;101121.48;;;7.88;83.98
51617;BME280;37697;52.588;13.394;2022-09-20T00:28:15;101118.20;;;7.81;83.99
51617;BME280;37697;52.588;13.394;2022-09-20T00:33:16;101111.08;;;7.77;84.23
51617;BME280;37697;52.588;13.394;2022-09-20T00:38:16;101114.09;;;7.75;84.31
51617;BME280;37697;52.588;13.394;2022-09-20T00:43:17;101118.75;;;7.72;84.40
51617;BME280;37697;52.588;13.394;2022-09-20T00:48:22;101118.19;;;7.73;84.43
51617;BME280;37697;52.588;13.394;2022-09-20T00:53:31;101123.98;;;7.71;84.37
51617;BME280;37697;52.588;13.394;2022-09-20T00:58:34;101122.88;;;7.65;84.26
51617;BME280;37697;52.588;13.394;2022-09-20T01:03:38;101131.64;;;7.62;84.49
51617;BME280;37697;52.588;13.394;2022-09-20T01:08:44;101129.72;;;7.59;84.55
51617;BME280;37697;52.588;13.394;2022-09-20T01:13:47;101129.18;;;7.57;84.39
51617;BME280;37697;52.588;13.394;2022-09-20T01:18:48;101133.27;;;7.55;84.31
51617;BME280;37697;52.588;13.394;2022-09-20T01:23:59;101130.26;;;7.51;84.28
51617;BME280;37697;52.588;13.394;2022-09-20T01:34:27;101124.78;;;7.44;84.20
51617;BME280;37697;52.588;13.394;2022-09-20T01:39:50;101127.22;;;7.37;84.09
51617;BME280;37697;52.588;13.394;2022-09-20T01:45:24;101122.02;;;7.33;84.17
51617;BME280;37697;52.588;13.394;2022-09-20T01:50:48;101129.13;;;7.27;84.13
51617;BME280;37697;52.588;13.394;2022-09-20T01:56:09;101133.52;;;7.23;84.36
51617;BME280;37697;52.588;13.394;2022-09-20T02:01:26;101137.89;;;7.21;84.35
51617;BME280;37697;52.588;13.394;2022-09-20T02:12:24;101146.64;;;7.10;84.19
51617;BME280;37697;52.588;13.394;2022-09-20T02:34:55;101155.12;;;7.09;84.84
51617;BME280;37697;52.588;13.394;2022-09-20T02:40:20;101157.60;;;7.08;84.87
51617;BME280;37697;52.588;13.394;2022-09-20T02:45:54;101171.00;;;7.07;84.98
51617;BME280;37697;52.588;13.394;2022-09-20T03:12:48;101166.59;;;6.95;84.81
51617;BME280;37697;52.588;13.394;2022-09-20T03:28:49;101178.89;;;6.93;85.24
51617;BME280;37697;52.588;13.394;2022-09-20T03:45:04;101182.47;;;6.98;85.94
51617;BME280;37697;52.588;13.394;2022-09-20T04:07:54;101188.31;;;7.20;87.10
51617;BME280;37697;52.588;13.394;2022-09-20T04:13:43;101181.19;;;7.24;87.52
51617;BME280;37697;52.588;13.394;2022-09-20T04:23:54;101203.44;;;7.43;87.84
51617;BME280;37697;52.588;13.394;2022-09-20T04:34:34;101204.28;;;7.54;87.96
51617;BME280;37697;52.588;13.394;2022-09-20T04:40:09;101204.29;;;7.59;88.21
51617;BME280;37697;52.588;13.394;2022-09-20T04:57:02;101213.05;;;7.64;88.19
51617;BME280;37697;52.588;13.394;2022-09-20T05:02:36;101210.30;;;7.64;88.27
51617;BME280;37697;52.588;13.394;2022-09-20T05:13:16;101215.24;;;7.69;88.32
51617;BME280;37697;52.588;13.394;2022-09-20T05:24:13;101233.92;;;7.75;88.22
51617;BME280;37697;52.588;13.394;2022-09-20T05:29:50;101237.75;;;7.79;88.25
51617;BME280;37697;52.588;13.394;2022-09-20T05:35:03;101243.50;;;7.85;88.23
51617;BME280;37697;52.588;13.394;2022-09-20T05:45:55;101255.31;;;8.01;88.40
51617;BME280;37697;52.588;13.394;2022-09-20T05:51:16;101260.81;;;8.09;88.54
51617;BME280;37697;52.588;13.394;2022-09-20T05:56:41;101260.28;;;8.17;88.66
51617;BME280;37697;52.588;13.394;2022-09-20T06:08:15;101275.09;;;8.37;88.82
51617;BME280;37697;52.588;13.394;2022-09-20T06:13:56;101288.83;;;8.44;88.80
51617;BME280;37697;52.588;13.394;2022-09-20T06:19:14;101292.12;;;8.51;88.72
51617;BME280;37697;52.588;13.394;2022-09-20T06:24:40;101299.80;;;8.57;88.71
51617;BME280;37697;52.588;13.394;2022-09-20T06:29:48;101303.64;;;8.64;88.63
51617;BME280;37697;52.588;13.394;2022-09-20T06:34:52;101303.34;;;8.68;88.55
51617;BME280;37697;52.588;13.394;2022-09-20T06:45:34;101303.88;;;8.75;88.17
51617;BME280;37697;52.588;13.394;2022-09-20T06:50:35;101312.12;;;8.80;88.21
51617;BME280;37697;52.588;13.394;2022-09-20T06:55:37;101306.07;;;8.88;88.33
51617;BME280;37697;52.588;13.394;2022-09-20T07:00:40;101312.64;;;8.92;87.98
51617;BME280;37697;52.588;13.394;2022-09-20T07:05:40;101318.67;;;8.95;87.80
51617;BME280;37697;52.588;13.394;2022-09-20T07:10:41;101324.45;;;8.96;87.49
51617;BME280;37697;52.588;13.394;2022-09-20T07:15:43;101334.07;;;8.96;87.61
51617;BME280;37697;52.588;13.394;2022-09-20T07:20:44;101340.12;;;8.95;87.50
51617;BME280;37697;52.588;13.394;2022-09-20T07:25:44;101341.22;;;8.89;87.35
51617;BME280;37697;52.588;13.394;2022-09-20T07:30:46;101345.33;;;8.99;87.67
51617;BME280;37697;52.588;13.394;2022-09-20T07:35:47;101348.30;;;9.16;88.17
51617;BME280;37697;52.588;13.394;2022-09-20T07:40:59;101345.81;;;9.27;87.99
51617;BME280;37697;52.588;13.394;2022-09-20T07:46:02;101348.53;;;9.35;88.18
51617;BME280;37697;52.588;13.394;2022-09-20T07:51:06;101349.31;;;9.45;88.22
51617;BME280;37697;52.588;13.394;2022-09-20T07:56:14;101358.06;;;9.58;88.43
51617;BME280;37697;52.588;13.394;2022-09-20T08:01:15;101367.06;;;9.74;88.59
51617;BME280;37697;52.588;13.394;2022-09-20T08:06:16;101368.09;;;9.88;88.52
51617;BME280;37697;52.588;13.394;2022-09-20T08:11:20;101368.30;;;10.04;88.68
51617;BME280;37697;52.588;13.394;2022-09-20T08:16:26;101377.00;;;10.19;88.21
51617;BME280;37697;52.588;13.394;2022-09-20T08:21:31;101374.74;;;10.32;88.08
51617;BME280;37697;52.588;13.394;2022-09-20T08:26:33;101386.75;;;10.46;87.99
51617;BME280;37697;52.588;13.394;2022-09-20T08:31:37;101385.80;;;10.63;88.10
51617;BME280;37697;52.588;13.394;2022-09-20T08:36:41;101381.82;;;10.80;88.01
51617;BME280;37697;52.588;13.394;2022-09-20T08:41:58;101393.20;;;10.97;88.02
51617;BME280;37697;52.588;13.394;2022-09-20T08:47:12;101389.69;;;11.18;87.62
51617;BME280;37697;52.588;13.394;2022-09-20T08:52:27;101392.77;;;11.41;87.74
51617;BME280;37697;52.588;13.394;2022-09-20T08:57:26;101388.86;;;11.69;87.38
51617;BME280;37697;52.588;13.394;2022-09-20T09:02:31;101392.17;;;11.92;86.97
51617;BME280;37697;52.588;13.394;2022-09-20T09:07:32;101394.96;;;12.30;86.82
51617;BME280;37697;52.588;13.394;2022-09-20T09:12:34;101396.85;;;12.51;85.60
51617;BME280;37697;52.588;13.394;2022-09-20T09:17:35;101389.56;;;12.75;84.92
51617;BME280;37697;52.588;13.394;2022-09-20T09:22:41;101401.38;;;13.11;85.02
51617;BME280;37697;52.588;13.394;2022-09-20T09:27:53;101393.16;;;13.38;83.79
51617;BME280;37697;52.588;13.394;2022-09-20T09:33:29;101397.66;;;13.62;82.68
51617;BME280;37697;52.588;13.394;2022-09-20T09:38:34;101391.84;;;13.89;81.82
51617;BME280;37697;52.588;13.394;2022-09-20T09:43:36;101386.56;;;13.90;81.83
51617;BME280;37697;52.588;13.394;2022-09-20T09:48:39;101387.98;;;14.37;81.20
51617;BME280;37697;52.588;13.394;2022-09-20T09:53:40;101387.81;;;14.56;80.38
51617;BME280;37697;52.588;13.394;2022-09-20T09:58:57;101381.87;;;14.63;79.08
51617;BME280;37697;52.588;13.394;2022-09-20T10:04:40;101375.66;;;14.89;79.08
51617;BME280;37697;52.588;13.394;2022-09-20T10:15:23;101385.37;;;15.00;76.38
51617;BME280;37697;52.588;13.394;2022-09-20T10:26:08;101393.19;;;14.87;75.11
51617;BME280;37697;52.588;13.394;2022-09-20T10:31:46;101388.33;;;14.70;74.78
51617;BME280;37697;52.588;13.394;2022-09-20T10:36:59;101383.63;;;14.45;74.60
51617;BME280;37697;52.588;13.394;2022-09-20T10:42:07;101399.68;;;14.23;75.36
51617;BME280;37697;52.588;13.394;2022-09-20T10:47:37;101407.23;;;13.95;75.89
51617;BME280;37697;52.588;13.394;2022-09-20T10:53:12;101413.05;;;13.82;76.42
51617;BME280;37697;52.588;13.394;2022-09-20T10:58:38;101411.96;;;13.80;76.28
51617;BME280;37697;52.588;13.394;2022-09-20T11:09:10;101464.39;;;12.97;74.10
51617;BME280;37697;52.588;13.394;2022-09-20T11:14:22;101448.97;;;12.39;75.21
51617;BME280;37697;52.588;13.394;2022-09-20T11:19:49;101450.33;;;12.20;75.85
51617;BME280;37697;52.588;13.394;2022-09-20T11:25:11;101441.37;;;12.09;76.33
51617;BME280;37697;52.588;13.394;2022-09-20T11:30:17;101431.95;;;12.10;76.62
51617;BME280;37697;52.588;13.394;2022-09-20T11:35:38;101444.60;;;12.14;76.75
51617;BME280;37697;52.588;13.394;2022-09-20T11:40:49;101449.89;;;12.10;76.96
51617;BME280;37697;52.588;13.394;2022-09-20T11:45:55;101447.66;;;12.34;77.59
51617;BME280;37697;52.588;13.394;2022-09-20T11:51:20;101458.91;;;12.76;77.98
51617;BME280;37697;52.588;13.394;2022-09-20T11:56:24;101453.41;;;13.08;77.08
51617;BME280;37697;52.588;13.394;2022-09-20T12:01:38;101453.05;;;13.13;77.46
51617;BME280;37697;52.588;13.394;2022-09-20T12:06:41;101461.20;;;13.53;78.40
51617;BME280;37697;52.588;13.394;2022-09-20T12:11:42;101460.17;;;14.04;78.34
51617;BME280;37697;52.588;13.394;2022-09-20T12:16:46;101453.31;;;14.27;78.63
51617;BME280;37697;52.588;13.394;2022-09-20T12:32:43;101465.86;;;14.86;76.93
51617;BME280;37697;52.588;13.394;2022-09-20T12:37:48;101459.05;;;15.04;75.94
51617;BME280;37697;52.588;13.394;2022-09-20T12:42:52;101454.70;;;15.00;75.15
51617;BME280;37697;52.588;13.394;2022-09-20T12:47:54;101463.45;;;14.71;75.00
51617;BME280;37697;52.588;13.394;2022-09-20T12:52:57;101474.62;;;14.54;74.73
51617;BME280;37697;52.588;13.394;2022-09-20T13:08:46;101485.10;;;13.63;73.11
51617;BME280;37697;52.588;13.394;2022-09-20T13:14:14;101506.31;;;13.68;72.51
51617;BME280;37697;52.588;13.394;2022-09-20T13:19:34;101511.63;;;13.80;72.25
51617;BME280;37697;52.588;13.394;2022-09-20T13:24:40;101516.45;;;13.58;71.98
51617;BME280;37697;52.588;13.394;2022-09-20T13:29:49;101524.17;;;13.45;72.32
51617;BME280;37697;52.588;13.394;2022-09-20T13:40:24;101514.72;;;13.30;72.55
51617;BME280;37697;52.588;13.394;2022-09-20T13:45:30;101522.20;;;13.29;72.92
51617;BME280;37697;52.588;13.394;2022-09-20T13:50:34;101512.20;;;13.33;72.67
51617;BME280;37697;52.588;13.394;2022-09-20T13:55:37;101511.48;;;13.58;73.12
51617;BME280;37697;52.588;13.394;2022-09-20T14:00:44;101512.38;;;13.97;73.24
51617;BME280;37697;52.588;13.394;2022-09-20T14:05:58;101507.21;;;14.21;72.84
51617;BME280;37697;52.588;13.394;2022-09-20T14:11:16;101508.13;;;14.41;71.92
51617;BME280;37697;52.588;13.394;2022-09-20T14:16:26;101503.87;;;14.47;71.83
51617;BME280;37697;52.588;13.394;2022-09-20T14:21:30;101512.76;;;14.46;71.63
51617;BME280;37697;52.588;13.394;2022-09-20T14:26:34;101502.75;;;14.62;71.46
51617;BME280;37697;52.588;13.394;2022-09-20T14:31:41;101506.11;;;14.72;71.44
51617;BME280;37697;52.588;13.394;2022-09-20T14:36:43;101500.10;;;14.54;70.31
51617;BME280;37697;52.588;13.394;2022-09-20T14:41:43;101513.67;;;14.41;70.59
51617;BME280;37697;52.588;13.394;2022-09-20T14:46:46;101516.94;;;14.18;69.96
51617;BME280;37697;52.588;13.394;2022-09-20T14:51:47;101526.19;;;14.00;70.35
51617;BME280;37697;52.588;13.394;2022-09-20T14:56:48;101531.09;;;13.75;70.09
51617;BME280;37697;52.588;13.394;2022-09-20T15:07:14;101551.28;;;13.76;70.99
51617;BME280;37697;52.588;13.394;2022-09-20T15:12:15;101570.23;;;13.69;70.60
51617;BME280;37697;52.588;13.394;2022-09-20T15:17:20;101572.19;;;13.52;69.24
51617;BME280;37697;52.588;13.394;2022-09-20T15:22:21;101581.38;;;13.31;69.51
51617;BME280;37697;52.588;13.394;2022-09-20T15:27:22;101588.23;;;12.98;69.54
51617;BME280;37697;52.588;13.394;2022-09-20T15:32:22;101594.45;;;12.68;70.48
51617;BME280;37697;52.588;13.394;2022-09-20T15:37:23;101589.09;;;12.55;71.59
51617;BME280;37697;52.588;13.394;2022-09-20T15:42:24;101589.73;;;12.47;72.19
51617;BME280;37697;52.588;13.394;2022-09-20T15:47:24;101589.34;;;12.35;72.83
51617;BME280;37697;52.588;13.394;2022-09-20T15:52:32;101584.44;;;12.29;72.98
51617;BME280;37697;52.588;13.394;2022-09-20T15:57:34;101579.78;;;12.24;73.70
51617;BME280;37697;52.588;13.394;2022-09-20T16:02:35;101585.70;;;12.15;73.98
51617;BME280;37697;52.588;13.394;2022-09-20T16:07:36;101591.84;;;12.07;74.33
51617;BME280;37697;52.588;13.394;2022-09-20T16:12:36;101595.45;;;12.07;74.98
51617;BME280;37697;52.588;13.394;2022-09-20T16:17:37;101596.03;;;12.04;75.28
51617;BME280;37697;52.588;13.394;2022-09-20T16:22:56;101599.94;;;12.01;75.69
51617;BME280;37697;52.588;13.394;2022-09-20T16:27:57;101601.37;;;11.95;75.82
51617;BME280;37697;52.588;13.394;2022-09-20T16:32:58;101595.32;;;11.93;76.12
51617;BME280;37697;52.588;13.394;2022-09-20T16:38:01;101600.31;;;11.91;76.17
51617;BME280;37697;52.588;13.394;2022-09-20T16:43:02;101603.09;;;11.86;76.26
51617;BME280;37697;52.588;13.394;2022-09-20T16:48:05;101602.00;;;11.85;76.57
51617;BME280;37697;52.588;13.394;2022-09-20T16:53:06;101600.95;;;11.78;76.58
51617;BME280;37697;52.588;13.394;2022-09-20T16:58:08;101603.75;;;11.73;76.71
51617;BME280;37697;52.588;13.394;2022-09-20T17:03:08;101609.11;;;11.62;77.05
51617;BME280;37697;52.588;13.394;2022-09-20T17:08:09;101609.11;;;11.62;77.05
51617;BME280;37697;52.588;13.394;2022-09-20T17:13:10;101619.05;;;11.57;77.21
51617;BME280;37697;52.588;13.394;2022-09-20T17:18:12;101628.22;;;11.50;77.35
51617;BME280;37697;52.588;13.394;2022-09-20T17:23:13;101639.60;;;11.44;77.41
51617;BME280;37697;52.588;13.394;2022-09-20T17:28:14;101644.63;;;11.36;77.70
51617;BME280;37697;52.588;13.394;2022-09-20T17:33:14;101647.41;;;11.31;77.83
51617;BME280;37697;52.588;13.394;2022-09-20T17:38:15;101649.10;;;11.25;77.98
51617;BME280;37697;52.588;13.394;2022-09-20T17:43:16;101661.00;;;11.15;77.95
51617;BME280;37697;52.588;13.394;2022-09-20T17:48:16;101661.90;;;11.05;78.12
51617;BME280;37697;52.588;13.394;2022-09-20T17:53:18;101668.56;;;10.96;78.15
51617;BME280;37697;52.588;13.394;2022-09-20T17:58:19;101676.87;;;10.86;78.06
51617;BME280;37697;52.588;13.394;2022-09-20T18:03:21;101676.35;;;10.79;78.34
51617;BME280;37697;52.588;13.394;2022-09-20T18:08:26;101682.44;;;10.71;78.39
51617;BME280;37697;52.588;13.394;2022-09-20T18:13:27;101688.82;;;10.61;78.31
51617;BME280;37697;52.588;13.394;2022-09-20T18:18:30;101693.54;;;10.50;78.32
51617;BME280;37697;52.588;13.394;2022-09-20T18:23:31;101700.70;;;10.41;78.29
51617;BME280;37697;52.588;13.394;2022-09-20T18:28:32;101705.93;;;10.30;78.23
51617;BME280;37697;52.588;13.394;2022-09-20T18:33:33;101707.87;;;10.19;78.22
51617;BME280;37697;52.588;13.394;2022-09-20T18:38:35;101705.40;;;10.07;78.17
51617;BME280;37697;52.588;13.394;2022-09-20T18:43:35;101702.66;;;9.94;78.27
51617;BME280;37697;52.588;13.394;2022-09-20T18:48:36;101712.28;;;9.84;78.19
51617;BME280;37697;52.588;13.394;2022-09-20T18:53:39;101708.98;;;9.72;78.20
51617;BME280;37697;52.588;13.394;2022-09-20T18:58:40;101721.34;;;9.61;78.29
51617;BME280;37697;52.588;13.394;2022-09-20T19:09:05;101727.08;;;9.42;78.29
51617;BME280;37697;52.588;13.394;2022-09-20T19:14:20;101732.55;;;9.32;78.30
51617;BME280;37697;52.588;13.394;2022-09-20T19:30:11;101743.70;;;8.99;78.50
51617;BME280;37697;52.588;13.394;2022-09-20T19:35:18;101743.95;;;8.92;78.58
51617;BME280;37697;52.588;13.394;2022-09-20T19:40:43;101752.98;;;8.83;78.55
51617;BME280;37697;52.588;13.394;2022-09-20T19:45:54;101761.16;;;8.75;78.70
51617;BME280;37697;52.588;13.394;2022-09-20T19:51:03;101772.11;;;8.70;78.88
51617;BME280;37697;52.588;13.394;2022-09-20T19:56:25;101771.52;;;8.63;78.90
51617;BME280;37697;52.588;13.394;2022-09-20T20:01:27;101774.48;;;8.53;78.79
51617;BME280;37697;52.588;13.394;2022-09-20T20:06:32;101781.50;;;8.42;78.72
51617;BME280;37697;52.588;13.394;2022-09-20T20:11:58;101775.97;;;8.34;78.77
51617;BME280;37697;52.588;13.394;2022-09-20T20:27:47;101794.42;;;8.09;79.16
51617;BME280;37697;52.588;13.394;2022-09-20T20:32:48;101796.57;;;8.04;79.27
51617;BME280;37697;52.588;13.394;2022-09-20T20:37:51;101793.25;;;8.00;79.35
51617;BME280;37697;52.588;13.394;2022-09-20T20:42:55;101805.30;;;7.96;79.35
51617;BME280;37697;52.588;13.394;2022-09-20T20:47:58;101809.61;;;7.89;79.25
51617;BME280;37697;52.588;13.394;2022-09-20T20:52:59;101811.44;;;7.81;79.29
51617;BME280;37697;52.588;13.394;2022-09-20T20:58:00;101814.92;;;7.74;79.25
51617;BME280;37697;52.588;13.394;2022-09-20T21:03:01;101815.98;;;7.68;79.21
51617;BME280;37697;52.588;13.394;2022-09-20T21:08:02;101824.59;;;7.57;79.29
51617;BME280;37697;52.588;13.394;2022-09-20T21:13:03;101827.56;;;7.50;79.35
51617;BME280;37697;52.588;13.394;2022-09-20T21:18:04;101827.75;;;7.44;79.53
51617;BME280;37697;52.588;13.394;2022-09-20T21:23:05;101825.45;;;7.35;79.43
51617;BME280;37697;52.588;13.394;2022-09-20T21:28:06;101826.75;;;7.30;79.50
51617;BME280;37697;52.588;13.394;2022-09-20T21:33:06;101832.14;;;7.23;79.48
51617;BME280;37697;52.588;13.394;2022-09-20T21:38:07;101842.16;;;7.14;79.46
51617;BME280;37697;52.588;13.394;2022-09-20T21:43:08;101847.00;;;7.07;79.60
51617;BME280;37697;52.588;13.394;2022-09-20T21:48:09;101852.41;;;7.02;79.63
51617;BME280;37697;52.588;13.394;2022-09-20T21:53:09;101850.94;;;6.94;79.67
51617;BME280;37697;52.588;13.394;2022-09-20T21:58:10;101864.57;;;6.92;79.73
51617;BME280;37697;52.588;13.394;2022-09-20T22:03:11;101855.46;;;6.86;79.80
51617;BME280;37697;52.588;13.394;2022-09-20T22:08:12;101852.12;;;6.81;79.77
51617;BME280;37697;52.588;13.394;2022-09-20T22:13:13;101855.58;;;6.74;79.79
51617;BME280;37697;52.588;13.394;2022-09-20T22:18:13;101856.62;;;6.71;79.93
51617;BME280;37697;52.588;13.394;2022-09-20T22:23:14;101861.46;;;6.66;79.95
51617;BME280;37697;52.588;13.394;2022-09-20T22:28:16;101865.78;;;6.62;79.98
51617;BME280;37697;52.588;13.394;2022-09-20T22:33:16;101867.56;;;6.54;79.97
51617;BME280;37697;52.588;13.394;2022-09-20T22:38:17;101873.25;;;6.50;80.08
51617;BME280;37697;52.588;13.394;2022-09-20T22:43:18;101863.28;;;6.43;80.10
51617;BME280;37697;52.588;13.394;2022-09-20T22:48:19;101861.58;;;6.40;80.16
51617;BME280;37697;52.588;13.394;2022-09-20T22:53:20;101865.90;;;6.36;80.22
51617;BME280;37697;52.588;13.394;2022-09-20T22:58:21;101867.20;;;6.33;80.33
51617;BME280;37697;52.588;13.394;2022-09-20T23:03:22;101868.78;;;6.29;80.45
51617;BME280;37697;52.588;13.394;2022-09-20T23:08:23;101876.17;;;6.29;80.74
51617;BME280;37697;52.588;13.394;2022-09-20T23:13:24;101870.64;;;6.26;80.68
51617;BME280;37697;52.588;13.394;2022-09-20T23:18:25;101876.63;;;6.23;80.57
51617;BME280;37697;52.588;13.394;2022-09-20T23:23:27;101872.95;;;6.17;80.53
51617;BME280;37697;52.588;13.394;2022-09-20T23:28:28;101881.33;;;6.11;80.62
51617;BME280;37697;52.588;13.394;2022-09-20T23:33:30;101887.22;;;6.05;80.51
51617;BME280;37697;52.588;13.394;2022-09-20T23:38:30;101899.42;;;6.00;80.45
51617;BME280;37697;52.588;13.394;2022-09-20T23:43:32;101902.81;;;5.93;80.49
51617;BME280;37697;52.588;13.394;2022-09-20T23:48:34;101903.32;;;5.89;80.56
51617;BME280;37697;52.588;13.394;2022-09-20T23:53:35;101907.08;;;5.86;80.73
51617;BME280;37697;52.588;13.394;2022-09-20T23:58:39;101894.95;;;5.82;80.72
